createdAt,value
2019-03-23T14:43:26.862Z,28.80
2019-03-23T14:45:56.890Z,29.63
2019-03-23T14:48:26.877Z,29.93
2019-03-23T14:50:56.899Z,28.83
2019-03-23T14:53:27.211Z,29.13
2019-03-23T14:55:57.223Z,28.87
2019-03-23T14:58:27.307Z,28.93
2019-03-23T15:00:57.376Z,25.40
2019-03-23T15:03:27.392Z,26.57
2019-03-23T15:05:57.403Z,26.63
2019-03-23T15:08:27.532Z,27.27
2019-03-23T15:10:57.579Z,26.80
2019-03-23T15:13:27.565Z,26.77
2019-03-23T15:15:57.613Z,25.27
2019-03-23T15:18:27.621Z,26.03
2019-03-23T15:20:57.618Z,26.70
2019-03-23T15:23:27.667Z,27.03
2019-03-23T15:25:57.677Z,25.90
2019-03-23T15:28:27.714Z,27.80
2019-03-23T15:30:57.719Z,26.77
2019-03-23T15:33:27.762Z,27.50
2019-03-23T15:35:57.798Z,26.57
2019-03-23T15:38:27.777Z,28.17
2019-03-23T15:40:57.868Z,28.17
2019-03-23T15:43:27.851Z,29.70
2019-03-23T15:45:57.880Z,30.20
2019-03-23T15:48:28.701Z,30.83
2019-03-23T15:50:59.021Z,31.03
2019-03-23T15:53:29.095Z,32.00
2019-03-23T15:55:59.098Z,33.10
2019-03-23T15:58:29.186Z,32.73
2019-03-23T16:00:59.199Z,33.50
2019-03-23T16:03:29.158Z,35.90
2019-03-23T16:05:59.179Z,35.73
2019-03-23T16:08:29.262Z,36.87
2019-03-23T16:10:59.261Z,38.27
2019-03-23T16:13:29.263Z,39.97
2019-03-23T16:15:59.264Z,38.20
2019-03-23T16:18:29.278Z,37.07
2019-03-23T16:20:59.279Z,42.20
2019-03-23T16:23:29.260Z,35.00
2019-03-23T16:25:59.226Z,34.70
2019-03-23T16:28:29.248Z,35.10
2019-03-23T16:30:59.218Z,35.27
2019-03-23T16:33:29.187Z,34.93
2019-03-23T16:35:59.225Z,35.07
2019-03-23T16:38:29.195Z,33.53
2019-03-23T16:40:59.210Z,31.60
2019-03-23T16:43:29.262Z,31.23
2019-03-23T16:45:59.407Z,30.37
2019-03-23T16:48:29.698Z,30.10
2019-03-23T16:50:59.698Z,30.17
2019-03-23T16:53:29.755Z,30.23
2019-03-23T16:55:59.719Z,28.87
2019-03-23T16:58:29.747Z,26.67
2019-03-23T17:00:59.734Z,27.10
2019-03-23T17:03:29.690Z,27.70
2019-03-23T17:05:59.749Z,27.53
2019-03-23T17:08:29.881Z,27.20
2019-03-23T17:10:59.885Z,24.40
2019-03-23T17:13:29.899Z,23.27
2019-03-23T17:15:59.967Z,25.90
2019-03-23T17:18:30.132Z,23.53
2019-03-23T17:21:00.193Z,23.97
2019-03-23T17:23:30.221Z,22.23
2019-03-23T17:26:00.218Z,22.87
2019-03-23T17:28:30.374Z,21.93
2019-03-23T17:31:00.438Z,19.87
2019-03-23T17:33:30.426Z,20.77
2019-03-23T17:36:00.529Z,19.60
2019-03-23T17:38:30.471Z,20.73
2019-03-23T17:41:00.497Z,20.50
2019-03-23T17:43:30.522Z,20.00
2019-03-23T17:46:00.606Z,19.20
2019-03-23T17:48:30.639Z,20.13
2019-03-23T17:51:00.689Z,17.60
2019-03-23T17:53:30.737Z,18.13
2019-03-23T17:56:00.722Z,21.17
2019-03-23T17:58:30.742Z,19.87
2019-03-23T18:01:01.501Z,18.73
2019-03-23T18:03:31.569Z,17.93
2019-03-23T18:06:01.613Z,16.93
2019-03-23T18:08:31.602Z,15.63
2019-03-23T18:11:01.583Z,19.53
2019-03-23T18:13:31.632Z,17.30
2019-03-23T18:16:01.613Z,15.60
2019-03-23T18:18:31.639Z,14.87
2019-03-23T18:21:01.602Z,13.17
2019-03-23T18:23:30.807Z,14.80
2019-03-23T18:26:00.790Z,13.67
2019-03-23T18:28:30.826Z,11.63
2019-03-23T18:31:00.826Z,11.57
2019-03-23T18:33:30.977Z,12.60
2019-03-23T18:36:01.001Z,12.10
2019-03-23T18:38:30.959Z,11.13
2019-03-23T18:41:00.983Z,13.10
2019-03-23T18:43:31.013Z,12.93
2019-03-23T18:46:01.028Z,12.97
2019-03-23T18:48:31.017Z,12.67
2019-03-23T18:51:01.018Z,11.93
2019-03-23T18:53:31.050Z,12.53
2019-03-23T18:56:00.999Z,12.37
2019-03-23T18:58:30.955Z,12.90
2019-03-23T19:01:00.938Z,13.03
2019-03-23T19:03:30.952Z,12.07
2019-03-23T19:06:00.874Z,12.93
2019-03-23T19:08:30.874Z,12.50
2019-03-23T19:11:00.892Z,14.03
2019-03-23T19:13:37.899Z,13.80
2019-03-23T19:16:02.607Z,12.80
2019-03-23T19:18:32.631Z,12.47
2019-03-23T19:21:02.630Z,13.63
2019-03-23T19:23:31.731Z,12.13
2019-03-23T19:26:01.756Z,11.67
2019-03-23T19:28:31.730Z,10.93
2019-03-23T19:31:01.734Z,10.80
2019-03-23T19:33:31.741Z,10.40
2019-03-23T19:36:01.782Z,11.00
2019-03-23T19:38:30.897Z,11.30
2019-03-23T19:41:00.869Z,10.63
2019-03-23T19:43:30.873Z,10.90
2019-03-23T19:46:00.991Z,10.63
2019-03-23T19:48:31.015Z,10.60
2019-03-23T19:51:01.066Z,10.67
2019-03-23T19:53:31.067Z,9.83
2019-03-23T19:56:01.030Z,9.57
2019-03-23T19:58:31.042Z,10.00
2019-03-23T20:01:01.001Z,10.60
2019-03-23T20:03:30.189Z,9.60
2019-03-23T20:06:00.181Z,9.60
2019-03-23T20:08:30.191Z,10.17
2019-03-23T20:11:00.181Z,10.70
2019-03-23T20:13:30.202Z,10.53
2019-03-23T20:16:00.265Z,10.60
2019-03-23T20:18:30.259Z,10.83
2019-03-23T20:21:00.246Z,10.63
2019-03-23T20:23:30.215Z,10.10
2019-03-23T20:26:00.194Z,10.30
2019-03-23T20:28:30.182Z,9.43
2019-03-23T20:31:00.221Z,11.43
2019-03-23T20:33:30.231Z,10.93
2019-03-23T20:36:00.248Z,9.70
2019-03-23T20:38:30.252Z,9.07
2019-03-23T20:41:00.257Z,9.30
2019-03-23T20:43:30.235Z,8.93
2019-03-23T20:46:00.239Z,8.80
2019-03-23T20:48:30.222Z,8.80
2019-03-23T20:51:00.376Z,11.37
2019-03-23T20:53:30.463Z,36.57
2019-03-23T20:56:00.427Z,8.30
2019-03-23T20:58:30.429Z,9.00
2019-03-23T21:01:00.479Z,8.87
2019-03-23T21:03:29.590Z,7.83
2019-03-23T21:05:59.592Z,7.70
2019-03-23T21:08:29.539Z,6.90
2019-03-23T21:10:59.578Z,7.40
2019-03-23T21:13:29.574Z,7.27
2019-03-23T21:15:59.606Z,7.43
2019-03-23T21:18:29.644Z,6.87
2019-03-23T21:20:59.626Z,7.37
2019-03-23T21:23:29.617Z,6.90
2019-03-23T21:25:59.664Z,6.30
2019-03-23T21:28:29.605Z,6.40
2019-03-23T21:30:59.585Z,6.70
2019-03-23T21:33:32.158Z,7.13
2019-03-23T21:36:01.238Z,6.10
2019-03-23T21:38:31.242Z,5.30
2019-03-23T21:41:01.256Z,5.10
2019-03-23T21:43:31.239Z,5.00
2019-03-23T21:46:01.187Z,4.37
2019-03-23T21:48:31.202Z,4.33
2019-03-23T21:51:01.215Z,3.70
2019-03-23T21:53:31.246Z,3.80
2019-03-23T21:56:01.198Z,5.53
2019-03-23T21:58:31.230Z,7.20
2019-03-23T22:01:01.178Z,8.43
2019-03-23T22:03:30.290Z,5.70
2019-03-23T22:06:00.314Z,4.20
2019-03-23T22:08:30.240Z,4.63
2019-03-23T22:11:00.339Z,4.33
2019-03-23T22:13:29.475Z,4.97
2019-03-23T22:15:59.463Z,5.07
2019-03-23T22:18:29.487Z,4.43
2019-03-23T22:20:59.505Z,5.70
2019-03-23T22:23:29.513Z,4.40
2019-03-23T22:25:59.519Z,4.37
2019-03-23T22:28:29.504Z,4.83
2019-03-23T22:30:59.607Z,3.60
2019-03-23T22:33:29.597Z,4.50
2019-03-23T22:35:59.637Z,4.77
2019-03-23T22:38:29.656Z,4.00
2019-03-23T22:40:59.635Z,3.97
2019-03-23T22:43:29.859Z,3.90
2019-03-23T22:45:59.817Z,4.33
2019-03-23T22:48:29.853Z,4.63
2019-03-23T22:50:59.866Z,5.00
2019-03-23T22:53:29.835Z,4.40
2019-03-23T22:55:58.961Z,4.57
2019-03-23T22:58:28.966Z,4.60
2019-03-23T23:00:59.071Z,3.67
2019-03-23T23:03:29.019Z,4.07
2019-03-23T23:05:59.064Z,4.60
2019-03-23T23:08:29.030Z,4.43
2019-03-23T23:10:59.022Z,5.30
2019-03-23T23:13:28.157Z,4.90
2019-03-23T23:15:58.127Z,3.70
2019-03-23T23:18:28.147Z,4.37
2019-03-23T23:20:58.106Z,4.23
2019-03-23T23:23:28.134Z,5.33
2019-03-23T23:25:58.117Z,5.07
2019-03-23T23:28:28.095Z,4.87
2019-03-23T23:30:58.092Z,4.63
2019-03-23T23:33:28.131Z,5.33
2019-03-23T23:35:58.176Z,5.60
2019-03-23T23:38:27.280Z,4.37
2019-03-23T23:40:57.235Z,5.60
2019-03-23T23:43:27.226Z,5.23
2019-03-23T23:45:57.240Z,3.87
2019-03-23T23:48:27.298Z,4.73
2019-03-23T23:50:56.425Z,4.90
2019-03-23T23:53:26.453Z,4.50
2019-03-23T23:55:56.542Z,4.67
2019-03-23T23:58:26.494Z,5.53
